Time;durP1;ratioP1;P1;durP2;ratioP2;P2;SDS_P1;SDS_P2;PMS_P1;PMS_P2;Temp;Humidity;BMP_temperature;BMP_pressure;BME280_temperature;BME280_humidity;BME280_pressure;Samples;Min_cycle;Max_cycle;Signal;HPM_P1;HPM_P2
2024/03/28 00:02:14;;;;;;;;;;;17.90;54.80;;;;;;5092321;28;19924;-74
2024/03/28 00:04:39;;;;;;;;;;;17.80;55.60;;;;;;5074340;28;19981;-74
2024/03/28 00:07:05;;;;;;;;;;;17.80;55.10;;;;;;5092480;28;19916;-74
2024/03/28 00:09:30;;;;;;;;;;;17.80;55.40;;;;;;5092548;28;19974;-74
2024/03/28 00:11:56;;;;;;;;;;;17.90;55.30;;;;;;5092448;28;19916;-74
2024/03/28 00:14:22;;;;;;;;;;;17.90;55.30;;;;;;5092414;28;20377;-74
2024/03/28 00:16:48;;;;;;;;;;;17.90;55.40;;;;;;5092324;28;19954;-74
2024/03/28 00:19:13;;;;;;;;;;;17.90;55.30;;;;;;5092398;28;20289;-74
2024/03/28 00:21:39;;;;;;;;;;;17.80;55.40;;;;;;5092289;28;20426;-74
2024/03/28 00:24:05;;;;;;;;;;;17.80;55.10;;;;;;5092245;28;20404;-74
2024/03/28 00:26:30;;;;;;;;;;;17.90;54.90;;;;;;5092681;28;19957;-74
2024/03/28 00:28:56;;;;;;;;;;;17.80;55.30;;;;;;5092326;28;19909;-74
2024/03/28 00:31:22;;;;;;;;;;;17.80;55.30;;;;;;5074160;28;19954;-74
2024/03/28 00:33:47;;;;;;;;;;;17.80;55.00;;;;;;5092053;28;19909;-74
2024/03/28 00:36:13;;;;;;;;;;;17.80;54.90;;;;;;5092238;28;19908;-74
2024/03/28 00:38:38;;;;;;;;;;;17.90;55.10;;;;;;5092239;28;19909;-74
2024/03/28 00:41:04;;;;;;;;;;;17.80;55.30;;;;;;5092336;28;20003;-74
2024/03/28 00:43:29;;;;;;;;;;;17.90;55.20;;;;;;5091931;28;19927;-73
2024/03/28 00:45:55;;;;;;;;;;;17.80;55.00;;;;;;5092065;28;19915;-74
2024/03/28 00:48:21;;;;;;;;;;;17.80;55.00;;;;;;5092194;28;20390;-74
2024/03/28 00:50:53;;;;;;;;;;;17.80;55.20;;;;;;5091959;28;19938;-74
2024/03/28 00:53:19;;;;;;;;;;;17.90;54.80;;;;;;5092441;28;19919;-74
2024/03/28 00:55:44;;;;;;;;;;;17.80;55.30;;;;;;5091812;28;19941;-74
2024/03/28 00:58:11;;;;;;;;;;;17.80;55.30;;;;;;5091749;28;19951;-74
2024/03/28 01:00:37;;;;;;;;;;;17.80;55.30;;;;;;5091878;28;19915;-74
2024/03/28 01:03:02;;;;;;;;;;;17.90;55.00;;;;;;5091598;28;19924;-74
2024/03/28 01:05:28;;;;;;;;;;;17.80;55.40;;;;;;5093259;28;20333;-73
2024/03/28 01:07:53;;;;;;;;;;;17.90;55.10;;;;;;5095875;28;19912;-73
2024/03/28 01:10:19;;;;;;;;;;;17.80;55.80;;;;;;5095766;28;19944;-74
2024/03/28 01:12:44;;;;;;;;;;;17.80;55.50;;;;;;5095670;28;19908;-74
2024/03/28 01:15:10;;;;;;;;;;;17.80;55.60;;;;;;5095781;28;19935;-74
2024/03/28 01:17:35;;;;;;;;;;;17.90;55.70;;;;;;5095707;28;19919;-74
2024/03/28 01:20:00;;;;;;;;;;;17.80;55.60;;;;;;5095540;28;19962;-73
2024/03/28 01:22:26;;;;;;;;;;;17.80;55.60;;;;;;5096093;28;19909;-74
2024/03/28 01:24:51;;;;;;;;;;;17.80;55.80;;;;;;5095430;28;19959;-74
2024/03/28 01:27:17;;;;;;;;;;;17.80;55.50;;;;;;5095475;28;19908;-73
2024/03/28 01:29:42;;;;;;;;;;;17.80;55.70;;;;;;5095416;28;19907;-74
2024/03/28 01:32:08;;;;;;;;;;;17.60;55.50;;;;;;5095458;28;20024;-73
2024/03/28 01:34:33;;;;;;;;;;;17.80;55.60;;;;;;5095519;28;19914;-74
2024/03/28 01:36:59;;;;;;;;;;;17.80;55.60;;;;;;5095267;28;19908;-74
2024/03/28 01:39:24;;;;;;;;;;;17.80;55.20;;;;;;5095325;28;19908;-74
2024/03/28 01:41:50;;;;;;;;;;;17.70;55.50;;;;;;5095401;28;19920;-74
2024/03/28 01:44:16;;;;;;;;;;;17.80;55.50;;;;;;5095204;28;19966;-73
2024/03/28 01:46:43;;;;;;;;;;;17.70;55.30;;;;;;5095086;28;19912;-74
2024/03/28 01:49:09;;;;;;;;;;;17.80;55.70;;;;;;5095316;28;20310;-74
2024/03/28 01:51:35;;;;;;;;;;;18.00;55.90;;;;;;5095096;28;19929;-74
2024/03/28 01:54:00;;;;;;;;;;;17.80;55.60;;;;;;5094946;28;19938;-73
2024/03/28 01:56:26;;;;;;;;;;;17.90;55.60;;;;;;5094890;28;19919;-74
2024/03/28 01:58:51;;;;;;;;;;;17.90;55.70;;;;;;5094924;28;19915;-73
2024/03/28 02:01:17;;;;;;;;;;;17.80;54.80;;;;;;5094794;28;19948;-73
2024/03/28 02:03:43;;;;;;;;;;;17.70;55.30;;;;;;5094476;28;19974;-73
2024/03/28 02:06:08;;;;;;;;;;;17.70;55.40;;;;;;5094767;28;19916;-73
2024/03/28 02:08:34;;;;;;;;;;;17.80;55.30;;;;;;5095189;28;20366;-73
2024/03/28 02:10:59;;;;;;;;;;;17.70;55.80;;;;;;5094699;28;19937;-73
2024/03/28 02:13:25;;;;;;;;;;;17.70;55.60;;;;;;5094637;28;19908;-73
2024/03/28 02:15:50;;;;;;;;;;;17.70;55.80;;;;;;5094452;28;20404;-74
2024/03/28 02:18:25;;;;;;;;;;;17.60;55.40;;;;;;5094712;28;19962;-73
2024/03/28 02:20:50;;;;;;;;;;;17.60;52.30;;;;;;5094715;28;19912;-73
2024/03/28 02:23:16;;;;;;;;;;;17.70;55.70;;;;;;5094514;28;19916;-73
2024/03/28 02:25:42;;;;;;;;;;;17.70;55.60;;;;;;5094489;28;19915;-74
2024/03/28 02:28:08;;;;;;;;;;;17.60;55.60;;;;;;5094331;28;19909;-73
2024/03/28 02:30:34;;;;;;;;;;;17.60;55.40;;;;;;5094428;28;19960;-74
2024/03/28 02:32:59;;;;;;;;;;;17.60;55.40;;;;;;5094269;28;19918;-73
2024/03/28 02:35:25;;;;;;;;;;;17.80;55.70;;;;;;5094327;28;19908;-73
2024/03/28 02:37:50;;;;;;;;;;;17.70;54.90;;;;;;5094640;28;19963;-73
2024/03/28 02:40:16;;;;;;;;;;;17.60;55.60;;;;;;5094052;28;19955;-73
2024/03/28 02:42:42;;;;;;;;;;;17.60;55.10;;;;;;5094006;28;19908;-73
2024/03/28 02:45:07;;;;;;;;;;;17.60;55.60;;;;;;5093955;28;20274;-73
2024/03/28 02:47:33;;;;;;;;;;;17.60;54.80;;;;;;5093920;28;19913;-73
2024/03/28 02:49:58;;;;;;;;;;;17.60;55.60;;;;;;5093995;28;19999;-74
2024/03/28 02:52:24;;;;;;;;;;;17.70;55.30;;;;;;5093927;28;19915;-73
2024/03/28 02:54:50;;;;;;;;;;;17.60;55.60;;;;;;5093769;28;19965;-73
2024/03/28 02:57:22;;;;;;;;;;;17.50;55.70;;;;;;5093770;28;20003;-73
2024/03/28 02:59:48;;;;;;;;;;;17.60;52.30;;;;;;5093964;28;20251;-73
2024/03/28 03:02:13;;;;;;;;;;;17.70;55.00;;;;;;5093273;28;20046;-73
2024/03/28 03:04:39;;;;;;;;;;;17.60;55.50;;;;;;5093609;28;20012;-73
2024/03/28 03:07:04;;;;;;;;;;;17.60;55.70;;;;;;5094041;28;20385;-73
2024/03/28 03:09:30;;;;;;;;;;;17.60;55.70;;;;;;5093843;28;19912;-73
2024/03/28 03:11:56;;;;;;;;;;;17.80;55.70;;;;;;5093459;28;19908;-73
2024/03/28 03:14:22;;;;;;;;;;;17.90;55.70;;;;;;5093448;28;19999;-73
2024/03/28 03:16:48;;;;;;;;;;;17.60;55.60;;;;;;5093537;28;20003;-73
2024/03/28 03:19:14;;;;;;;;;;;17.60;55.70;;;;;;5093334;28;19931;-74
2024/03/28 03:21:40;;;;;;;;;;;17.60;55.30;;;;;;5093285;28;20429;-73
2024/03/28 03:24:05;;;;;;;;;;;17.60;55.60;;;;;;5093179;28;19919;-73
2024/03/28 03:26:31;;;;;;;;;;;17.60;55.20;;;;;;5093186;28;19936;-73
2024/03/28 03:34:37;;;;;;;;;;;17.60;55.10;;;;;;5100308;28;19916;-73
2024/03/28 03:37:03;;;;;;;;;;;17.60;53.10;;;;;;5093045;28;19919;-73
2024/03/28 03:39:29;;;;;;;;;;;17.50;55.40;;;;;;5093136;28;19908;-73
2024/03/28 03:41:55;;;;;;;;;;;17.50;55.60;;;;;;5092932;28;19908;-73
2024/03/28 03:44:20;;;;;;;;;;;19.50;56.50;;;;;;5092785;28;19927;-74
2024/03/28 03:46:46;;;;;;;;;;;17.50;55.90;;;;;;5092899;28;19909;-73
2024/03/28 03:49:11;;;;;;;;;;;17.60;55.60;;;;;;5092852;28;19931;-74
2024/03/28 03:51:37;;;;;;;;;;;17.50;55.80;;;;;;5074897;28;19909;-73
2024/03/28 03:54:02;;;;;;;;;;;17.50;55.60;;;;;;5092770;28;19986;-73
2024/03/28 03:56:28;;;;;;;;;;;17.50;55.50;;;;;;5092666;28;19933;-73
2024/03/28 03:58:53;;;;;;;;;;;17.50;55.80;;;;;;5092668;28;20381;-73
2024/03/28 04:01:19;;;;;;;;;;;17.60;55.30;;;;;;5092611;28;19939;-73
2024/03/28 04:03:45;;;;;;;;;;;17.50;55.50;;;;;;5092936;28;19920;-74
2024/03/28 04:06:10;;;;;;;;;;;17.50;56.00;;;;;;5092591;28;19912;-73
2024/03/28 04:08:36;;;;;;;;;;;17.40;56.00;;;;;;5092603;28;19908;-73
2024/03/28 04:11:01;;;;;;;;;;;17.40;56.00;;;;;;5092580;28;19915;-73
2024/03/28 04:13:27;;;;;;;;;;;17.40;55.80;;;;;;5092421;28;20355;-74
2024/03/28 04:15:52;;;;;;;;;;;17.50;56.10;;;;;;5092590;28;20016;-74
2024/03/28 04:18:18;;;;;;;;;;;17.40;56.40;;;;;;5092416;28;20358;-73
2024/03/28 04:20:43;;;;;;;;;;;17.50;56.20;;;;;;5092353;28;19908;-74
2024/03/28 04:23:09;;;;;;;;;;;17.40;56.40;;;;;;5092312;28;19923;-74
2024/03/28 04:25:34;;;;;;;;;;;17.40;56.00;;;;;;5092238;28;19927;-74
2024/03/28 04:28:00;;;;;;;;;;;17.50;56.10;;;;;;5092304;28;20362;-73
2024/03/28 04:30:30;;;;;;;;;;;17.50;56.00;;;;;;5092328;28;19908;-73
2024/03/28 04:32:56;;;;;;;;;;;17.50;52.80;;;;;;5092806;28;19908;-74
2024/03/28 04:35:22;;;;;;;;;;;17.40;55.70;;;;;;5092332;28;19908;-74
2024/03/28 04:37:48;;;;;;;;;;;17.50;56.10;;;;;;5092155;28;20255;-74
2024/03/28 04:40:14;;;;;;;;;;;17.80;56.20;;;;;;5093449;28;19998;-74
2024/03/28 04:42:40;;;;;;;;;;;17.50;56.10;;;;;;5096367;28;20362;-74
2024/03/28 04:45:06;;;;;;;;;;;17.40;56.10;;;;;;5096303;28;19920;-73
2024/03/28 04:47:31;;;;;;;;;;;17.40;55.40;;;;;;5096307;28;19908;-74
2024/03/28 04:49:56;;;;;;;;;;;17.40;56.10;;;;;;5096288;28;20354;-74
2024/03/28 04:52:23;;;;;;;;;;;17.00;56.00;;;;;;5096252;28;19915;-73
2024/03/28 04:54:48;;;;;;;;;;;17.40;56.10;;;;;;5096115;28;19996;-73
2024/03/28 04:57:14;;;;;;;;;;;17.50;57.00;;;;;;5096154;28;19920;-73
2024/03/28 04:59:39;;;;;;;;;;;17.40;56.20;;;;;;5096543;28;19912;-74
2024/03/28 05:02:05;;;;;;;;;;;17.50;55.70;;;;;;5095826;28;19923;-74
2024/03/28 05:04:30;;;;;;;;;;;17.40;56.10;;;;;;5096020;28;19986;-73
2024/03/28 05:06:56;;;;;;;;;;;17.40;56.00;;;;;;5096008;28;20286;-73
2024/03/28 05:09:22;;;;;;;;;;;17.40;56.20;;;;;;5095927;28;20316;-73
2024/03/28 05:11:47;;;;;;;;;;;17.50;56.30;;;;;;5095807;28;19908;-73
2024/03/28 05:14:13;;;;;;;;;;;17.50;56.50;;;;;;5096102;28;19908;-73
2024/03/28 05:16:38;;;;;;;;;;;17.50;56.40;;;;;;5095574;28;19908;-73
2024/03/28 05:19:04;;;;;;;;;;;17.40;56.20;;;;;;5095990;28;19908;-73
2024/03/28 05:21:29;;;;;;;;;;;17.60;56.40;;;;;;5095673;28;20097;-73
2024/03/28 05:23:55;;;;;;;;;;;17.50;56.40;;;;;;5095448;28;19916;-73
2024/03/28 05:26:20;;;;;;;;;;;17.50;55.90;;;;;;5095704;28;19912;-73
2024/03/28 05:28:46;;;;;;;;;;;17.50;55.60;;;;;;5095681;28;19908;-73
2024/03/28 05:31:18;;;;;;;;;;;17.40;56.00;;;;;;5077176;28;19908;-74
2024/03/28 05:33:44;;;;;;;;;;;17.50;52.50;;;;;;5095169;28;19908;-73
2024/03/28 05:36:11;;;;;;;;;;;17.50;55.90;;;;;;5095065;28;19908;-73
2024/03/28 05:38:36;;;;;;;;;;;17.40;55.80;;;;;;5077082;28;19908;-73
2024/03/28 05:41:04;;;;;;;;;;;17.50;56.10;;;;;;5095153;28;19915;-73
2024/03/28 05:43:30;;;;;;;;;;;17.40;55.20;;;;;;5095241;28;20265;-73
2024/03/28 05:45:55;;;;;;;;;;;17.60;56.10;;;;;;5095152;28;19914;-73
2024/03/28 05:48:21;;;;;;;;;;;17.50;55.90;;;;;;5095083;28;19922;-73
2024/03/28 05:50:46;;;;;;;;;;;17.50;56.10;;;;;;5076329;28;20376;-74
2024/03/28 05:53:12;;;;;;;;;;;17.50;55.90;;;;;;5094907;28;19908;-74
2024/03/28 05:55:38;;;;;;;;;;;17.50;55.70;;;;;;5095005;28;19948;-74
2024/03/28 05:58:03;;;;;;;;;;;17.40;55.80;;;;;;5095333;28;20386;-73
2024/03/28 06:00:30;;;;;;;;;;;17.50;55.80;;;;;;5094858;28;20251;-74
2024/03/28 06:02:56;;;;;;;;;;;17.60;55.10;;;;;;5098698;28;20380;-74
2024/03/28 06:05:21;;;;;;;;;;;17.40;55.50;;;;;;5079849;28;19916;-75
2024/03/28 06:07:47;;;;;;;;;;;17.40;55.60;;;;;;5076497;28;19908;-75
2024/03/28 06:10:12;;;;;;;;;;;17.50;55.80;;;;;;5076341;28;19969;-75
2024/03/28 06:12:38;;;;;;;;;;;17.40;55.80;;;;;;5094518;28;20023;-75
2024/03/28 06:15:04;;;;;;;;;;;17.50;55.60;;;;;;5094423;28;20335;-76
2024/03/28 06:17:29;;;;;;;;;;;17.40;54.90;;;;;;5094420;28;19908;-75
2024/03/28 06:19:55;;;;;;;;;;;17.30;55.80;;;;;;5094404;28;19915;-75
2024/03/28 06:22:20;;;;;;;;;;;17.30;54.90;;;;;;5076231;28;19934;-74
2024/03/28 06:24:46;;;;;;;;;;;17.30;55.80;;;;;;5094177;28;19999;-74
2024/03/28 06:27:12;;;;;;;;;;;17.30;55.60;;;;;;5094561;28;20266;-75
2024/03/28 06:29:49;;;;;;;;;;;17.30;55.40;;;;;;5094204;28;19915;-72
2024/03/28 06:32:24;;;;;;;;;;;17.30;52.40;;;;;;5094248;28;19908;-75
2024/03/28 06:34:59;;;;;;;;;;;17.30;55.80;;;;;;5094216;28;20006;-75
2024/03/28 06:37:25;;;;;;;;;;;17.70;56.20;;;;;;5094176;28;20417;-75
2024/03/28 06:39:51;;;;;;;;;;;17.30;56.00;;;;;;5094301;28;19908;-75
2024/03/28 06:42:17;;;;;;;;;;;17.30;56.00;;;;;;5094014;28;19958;-75
2024/03/28 06:44:52;;;;;;;;;;;17.30;56.00;;;;;;5094018;28;19956;-75
2024/03/28 06:47:18;;;;;;;;;;;17.30;56.10;;;;;;5094041;28;19912;-75
2024/03/28 06:49:44;;;;;;;;;;;17.30;55.40;;;;;;5094020;28;20007;-75
2024/03/28 06:52:10;;;;;;;;;;;17.30;55.60;;;;;;5093476;28;19943;-75
2024/03/28 06:54:36;;;;;;;;;;;17.50;55.00;;;;;;5094228;28;19915;-75
2024/03/28 06:57:04;;;;;;;;;;;17.40;55.90;;;;;;5093806;28;20344;-75
2024/03/28 06:59:30;;;;;;;;;;;17.40;55.50;;;;;;5093646;28;19912;-75
2024/03/28 07:01:56;;;;;;;;;;;17.40;55.50;;;;;;5093253;28;19916;-75
2024/03/28 07:04:23;;;;;;;;;;;17.30;55.80;;;;;;5092548;28;20278;-75
2024/03/28 07:06:49;;;;;;;;;;;17.30;55.80;;;;;;5093748;28;19908;-75
2024/03/28 07:09:14;;;;;;;;;;;17.30;56.20;;;;;;5093163;28;19908;-74
2024/03/28 07:11:40;;;;;;;;;;;17.40;56.20;;;;;;5093271;28;19912;-75
2024/03/28 07:14:07;;;;;;;;;;;17.30;56.70;;;;;;5093143;28;19908;-75
2024/03/28 07:16:32;;;;;;;;;;;17.30;56.20;;;;;;5093073;28;19968;-75
2024/03/28 07:18:59;;;;;;;;;;;17.30;55.60;;;;;;5093053;28;19908;-75
2024/03/28 07:21:25;;;;;;;;;;;17.30;56.10;;;;;;5092950;28;19908;-75
2024/03/28 07:23:50;;;;;;;;;;;17.40;55.20;;;;;;5093538;28;19920;-73
2024/03/28 07:26:16;;;;;;;;;;;17.30;55.70;;;;;;5077189;28;20292;-73
2024/03/28 07:28:42;;;;;;;;;;;17.30;56.00;;;;;;5093309;28;20017;-73
2024/03/28 07:31:07;;;;;;;;;;;17.30;55.60;;;;;;5092844;28;19908;-72
2024/03/28 07:33:33;;;;;;;;;;;17.30;56.00;;;;;;5092799;28;19908;-72
2024/03/28 07:35:58;;;;;;;;;;;17.30;56.00;;;;;;5092801;28;19912;-71
2024/03/28 07:38:24;;;;;;;;;;;17.30;55.90;;;;;;5092907;28;19946;-72
2024/03/28 07:40:50;;;;;;;;;;;17.30;56.00;;;;;;5092630;28;19919;-72
2024/03/28 07:43:16;;;;;;;;;;;17.30;56.50;;;;;;5092598;28;20003;-73
2024/03/28 07:45:44;;;;;;;;;;;17.50;56.70;;;;;;5093016;28;19955;-72
2024/03/28 07:48:10;;;;;;;;;;;17.30;56.30;;;;;;5092674;28;19908;-72
2024/03/28 07:50:36;;;;;;;;;;;17.20;56.00;;;;;;5092884;28;20325;-73
2024/03/28 07:53:02;;;;;;;;;;;17.50;56.40;;;;;;5092390;28;20319;-73
2024/03/28 07:55:28;;;;;;;;;;;17.30;56.10;;;;;;5092428;28;19999;-74
2024/03/28 07:57:53;;;;;;;;;;;17.40;56.40;;;;;;5092389;28;20050;-74
2024/03/28 08:00:21;;;;;;;;;;;17.30;56.40;;;;;;5092328;28;19915;-72
2024/03/28 08:02:47;;;;;;;;;;;17.40;55.90;;;;;;5092146;28;20347;-74
2024/03/28 08:05:13;;;;;;;;;;;17.30;56.60;;;;;;5092313;28;19967;-73
2024/03/28 08:07:39;;;;;;;;;;;17.30;56.30;;;;;;5092520;28;20009;-75
2024/03/28 08:10:04;;;;;;;;;;;17.30;56.40;;;;;;5092336;28;19912;-73
2024/03/28 08:12:30;;;;;;;;;;;17.30;55.60;;;;;;5092212;28;19955;-74
2024/03/28 08:14:55;;;;;;;;;;;17.30;56.70;;;;;;5092180;28;20370;-73
2024/03/28 08:17:21;;;;;;;;;;;15.40;55.20;;;;;;5092248;28;19908;-74
2024/03/28 08:19:47;;;;;;;;;;;17.30;56.70;;;;;;5074515;28;20353;-74
2024/03/28 08:22:14;;;;;;;;;;;17.30;56.40;;;;;;5092829;28;19908;-74
2024/03/28 08:24:40;;;;;;;;;;;17.70;56.60;;;;;;5092084;28;19963;-74
2024/03/28 08:27:07;;;;;;;;;;;17.20;56.20;;;;;;5092399;28;19935;-74
2024/03/28 08:29:32;;;;;;;;;;;17.50;56.10;;;;;;5091950;28;19914;-74
2024/03/28 08:31:58;;;;;;;;;;;17.30;56.20;;;;;;5092223;28;19908;-75
2024/03/28 08:34:25;;;;;;;;;;;17.20;56.30;;;;;;5091977;28;19908;-73
2024/03/28 08:36:51;;;;;;;;;;;17.20;56.00;;;;;;5092057;28;19932;-76
2024/03/28 08:39:22;;;;;;;;;;;17.30;56.40;;;;;;5092134;28;19915;-72
2024/03/28 08:41:48;;;;;;;;;;;17.20;56.30;;;;;;5098826;28;19908;-72
2024/03/28 08:44:14;;;;;;;;;;;17.10;56.10;;;;;;5073882;28;19961;-72
2024/03/28 08:46:40;;;;;;;;;;;17.20;56.30;;;;;;5091960;28;19908;-72
2024/03/28 08:49:08;;;;;;;;;;;17.10;56.40;;;;;;5092707;28;20356;-72
2024/03/28 08:51:33;;;;;;;;;;;17.30;56.10;;;;;;5091889;28;19908;-72
2024/03/28 08:53:59;;;;;;;;;;;17.20;56.00;;;;;;5092040;28;19915;-72
2024/03/28 08:56:24;;;;;;;;;;;17.20;56.60;;;;;;5092056;28;19914;-72
2024/03/28 08:58:50;;;;;;;;;;;17.20;56.30;;;;;;5091987;28;19970;-72
2024/03/28 09:01:15;;;;;;;;;;;17.30;55.90;;;;;;5092030;28;19919;-72
2024/03/28 09:03:42;;;;;;;;;;;17.20;56.30;;;;;;5091623;28;19924;-72
2024/03/28 09:06:09;;;;;;;;;;;17.40;56.60;;;;;;5092043;28;19908;-72
2024/03/28 09:08:38;;;;;;;;;;;17.20;56.20;;;;;;5091940;28;19908;-72
2024/03/28 09:11:06;;;;;;;;;;;17.20;53.10;;;;;;5091785;28;19908;-72
2024/03/28 09:13:31;;;;;;;;;;;17.10;56.20;;;;;;5092032;28;19908;-72
2024/03/28 09:15:57;;;;;;;;;;;17.20;56.50;;;;;;5092206;28;19991;-72
2024/03/28 09:18:23;;;;;;;;;;;17.20;56.20;;;;;;5091820;28;19908;-72
2024/03/28 09:20:48;;;;;;;;;;;17.20;56.50;;;;;;5091698;28;20267;-73
2024/03/28 09:23:14;;;;;;;;;;;17.20;56.20;;;;;;5091739;28;19916;-72
2024/03/28 09:25:39;;;;;;;;;;;17.20;56.30;;;;;;5091592;28;19912;-72
2024/03/28 09:28:05;;;;;;;;;;;17.10;56.20;;;;;;5095496;28;20393;-72
2024/03/28 09:30:31;;;;;;;;;;;17.20;56.20;;;;;;5095563;28;19908;-72
2024/03/28 09:32:57;;;;;;;;;;;17.20;56.30;;;;;;5095512;28;19908;-72
2024/03/28 09:35:24;;;;;;;;;;;17.20;56.70;;;;;;5095758;28;19931;-72
2024/03/28 09:37:50;;;;;;;;;;;17.10;56.20;;;;;;5095607;28;19920;-72
2024/03/28 09:40:16;;;;;;;;;;;17.10;56.30;;;;;;5095541;28;20343;-72
2024/03/28 09:42:44;;;;;;;;;;;17.10;56.20;;;;;;5095563;28;19908;-72
2024/03/28 09:45:10;;;;;;;;;;;17.20;56.40;;;;;;5095449;28;19955;-72
2024/03/28 09:47:36;;;;;;;;;;;17.10;56.30;;;;;;5094970;28;20420;-72
2024/03/28 09:50:07;;;;;;;;;;;17.10;56.20;;;;;;5094846;28;19947;-72
2024/03/28 09:52:33;;;;;;;;;;;17.10;56.00;;;;;;5094854;28;19970;-72
2024/03/28 09:54:59;;;;;;;;;;;17.10;56.20;;;;;;5094973;28;19908;-72
2024/03/28 09:57:25;;;;;;;;;;;17.10;56.40;;;;;;5094646;28;20003;-72
2024/03/28 09:59:51;;;;;;;;;;;17.10;56.40;;;;;;5094575;28;19997;-73
2024/03/28 10:02:17;;;;;;;;;;;17.20;56.20;;;;;;5094119;28;19912;-73
2024/03/28 10:04:54;;;;;;;;;;;17.10;56.00;;;;;;5094571;28;19916;-72
2024/03/28 10:07:21;;;;;;;;;;;17.10;56.50;;;;;;5094273;28;20378;-72
2024/03/28 10:09:48;;;;;;;;;;;17.10;56.20;;;;;;5094623;28;20306;-72
2024/03/28 10:12:15;;;;;;;;;;;17.10;56.50;;;;;;5094805;28;19915;-72
2024/03/28 10:14:52;;;;;;;;;;;17.10;55.60;;;;;;5094585;28;20212;-72
2024/03/28 10:17:18;;;;;;;;;;;17.10;53.00;;;;;;5094260;28;19954;-72
2024/03/28 10:19:45;;;;;;;;;;;17.10;56.30;;;;;;5094533;28;19908;-72
2024/03/28 10:22:12;;;;;;;;;;;17.10;56.40;;;;;;5094173;28;20382;-73
2024/03/28 10:24:38;;;;;;;;;;;17.10;56.20;;;;;;5094154;28;19962;-72
2024/03/28 10:27:18;;;;;;;;;;;17.10;56.20;;;;;;5094440;28;19908;-72
2024/03/28 10:29:48;;;;;;;;;;;17.20;53.10;;;;;;5094112;28;19908;-72
2024/03/28 10:32:14;;;;;;;;;;;17.10;52.80;;;;;;5094347;28;20276;-72
2024/03/28 10:34:45;;;;;;;;;;;17.20;56.10;;;;;;5094097;28;20031;-73
2024/03/28 10:37:11;;;;;;;;;;;17.10;56.30;;;;;;5093875;28;20362;-72
2024/03/28 10:39:36;;;;;;;;;;;17.10;56.30;;;;;;5093863;28;19908;-73
2024/03/28 10:42:04;;;;;;;;;;;17.10;56.30;;;;;;5094319;28;19913;-72
2024/03/28 10:44:30;;;;;;;;;;;17.30;56.10;;;;;;5094053;28;20252;-72
2024/03/28 10:46:57;;;;;;;;;;;17.10;56.20;;;;;;5093803;28;19991;-76
2024/03/28 10:49:26;;;;;;;;;;;17.10;56.30;;;;;;5094054;28;20034;-76
2024/03/28 10:51:54;;;;;;;;;;;17.00;56.20;;;;;;5093452;28;20343;-76
2024/03/28 10:54:30;;;;;;;;;;;17.00;56.10;;;;;;5094032;28;20301;-76
2024/03/28 10:56:56;;;;;;;;;;;17.30;52.70;;;;;;5093605;28;19974;-75
2024/03/28 10:59:23;;;;;;;;;;;17.00;56.00;;;;;;5093823;28;20320;-73
2024/03/28 11:01:50;;;;;;;;;;;17.20;55.50;;;;;;5093621;28;20243;-73
2024/03/28 11:04:16;;;;;;;;;;;17.20;56.10;;;;;;5093088;28;19920;-73
2024/03/28 11:06:43;;;;;;;;;;;17.20;56.00;;;;;;5093677;28;19966;-73
2024/03/28 11:09:10;;;;;;;;;;;17.10;55.90;;;;;;5093485;28;19908;-73
2024/03/28 11:11:36;;;;;;;;;;;17.20;55.60;;;;;;5093969;28;19908;-73
2024/03/28 11:14:03;;;;;;;;;;;17.20;55.60;;;;;;5093593;28;19909;-73
2024/03/28 11:16:29;;;;;;;;;;;17.30;55.60;;;;;;5093407;28;19977;-73
2024/03/28 11:19:01;;;;;;;;;;;17.30;55.00;;;;;;5093332;28;20342;-73
2024/03/28 11:21:27;;;;;;;;;;;17.40;51.70;;;;;;5093460;28;20288;-74
2024/03/28 11:23:55;;;;;;;;;;;17.60;54.80;;;;;;5093400;28;19916;-74
2024/03/28 11:26:22;;;;;;;;;;;17.60;52.30;;;;;;5092986;28;20358;-74
2024/03/28 11:28:48;;;;;;;;;;;17.60;54.30;;;;;;5093282;28;19915;-74
2024/03/28 11:31:24;;;;;;;;;;;17.70;54.90;;;;;;5093253;28;19926;-74
2024/03/28 11:33:58;;;;;;;;;;;17.70;51.40;;;;;;5093151;28;20265;-74
2024/03/28 11:36:26;;;;;;;;;;;17.90;54.70;;;;;;5093149;28;19952;-74
2024/03/28 11:38:52;;;;;;;;;;;18.00;53.90;;;;;;5093325;28;19951;-74
2024/03/28 11:41:20;;;;;;;;;;;17.80;54.40;;;;;;5093087;28;20351;-74
2024/03/28 11:43:45;;;;;;;;;;;18.00;54.40;;;;;;5092901;28;19920;-74
2024/03/28 11:46:11;;;;;;;;;;;18.00;54.20;;;;;;5092988;28;20128;-74
2024/03/28 11:48:37;;;;;;;;;;;18.00;54.10;;;;;;5092237;28;20367;-74
2024/03/28 11:51:04;;;;;;;;;;;18.00;54.10;;;;;;5092574;28;19947;-74
2024/03/28 11:53:32;;;;;;;;;;;18.10;54.00;;;;;;5092513;28;19919;-74
2024/03/28 11:55:58;;;;;;;;;;;18.20;53.90;;;;;;5092841;28;19915;-74
2024/03/28 11:58:25;;;;;;;;;;;18.30;53.70;;;;;;5092448;28;19912;-74
2024/03/28 12:00:57;;;;;;;;;;;18.30;53.70;;;;;;5092633;28;19915;-74
2024/03/28 12:03:24;;;;;;;;;;;18.50;52.50;;;;;;5091973;28;19920;-74
2024/03/28 12:05:50;;;;;;;;;;;18.50;53.00;;;;;;5092718;28;19919;-74
2024/03/28 12:08:20;;;;;;;;;;;18.60;53.00;;;;;;5092835;28;20342;-74
2024/03/28 12:10:46;;;;;;;;;;;18.40;53.60;;;;;;5092385;28;20003;-74
2024/03/28 12:13:12;;;;;;;;;;;18.40;53.80;;;;;;5092616;28;20002;-74
2024/03/28 12:15:38;;;;;;;;;;;18.40;53.80;;;;;;5092586;28;19944;-74
2024/03/28 12:18:04;;;;;;;;;;;18.50;53.70;;;;;;5092294;28;20334;-74
2024/03/28 12:20:31;;;;;;;;;;;18.40;52.80;;;;;;5092164;28;20405;-74
2024/03/28 12:23:03;;;;;;;;;;;18.60;53.30;;;;;;5092484;28;19996;-74
2024/03/28 12:25:29;;;;;;;;;;;18.60;53.10;;;;;;5098901;28;19970;-74
2024/03/28 12:27:58;;;;;;;;;;;18.70;53.00;;;;;;5092086;28;19912;-74
2024/03/28 12:30:25;;;;;;;;;;;18.80;50.00;;;;;;5092051;28;19915;-74
2024/03/28 12:33:03;;;;;;;;;;;18.80;52.50;;;;;;5092034;28;19912;-74
2024/03/28 12:35:30;;;;;;;;;;;19.20;51.50;;;;;;5092632;28;20018;-74
2024/03/28 12:37:58;;;;;;;;;;;19.10;52.30;;;;;;5073917;28;20391;-74
2024/03/28 12:40:24;;;;;;;;;;;19.20;51.80;;;;;;5092025;28;19909;-74
2024/03/28 12:42:50;;;;;;;;;;;19.20;51.90;;;;;;5091964;28;19908;-74
2024/03/28 12:45:16;;;;;;;;;;;19.30;51.80;;;;;;5091929;28;19916;-74
2024/03/28 12:47:45;;;;;;;;;;;19.40;51.50;;;;;;5092158;28;19991;-74
2024/03/28 12:50:16;;;;;;;;;;;19.50;48.30;;;;;;5092070;28;20290;-74
2024/03/28 12:52:48;;;;;;;;;;;19.60;51.00;;;;;;5098579;28;20278;-74
2024/03/28 12:55:14;;;;;;;;;;;19.80;48.10;;;;;;5091805;28;19908;-74
2024/03/28 12:57:40;;;;;;;;;;;19.80;50.80;;;;;;5091764;28;19915;-74
2024/03/28 13:00:06;;;;;;;;;;;19.90;50.50;;;;;;5091794;28;19908;-74
2024/03/28 13:02:32;;;;;;;;;;;20.20;49.50;;;;;;5094458;28;19997;-74
2024/03/28 13:04:57;;;;;;;;;;;20.20;49.50;;;;;;5078098;28;19916;-74
2024/03/28 13:07:23;;;;;;;;;;;20.30;49.60;;;;;;5095550;28;19954;-73
2024/03/28 13:09:49;;;;;;;;;;;20.40;49.70;;;;;;5095546;28;19908;-74
2024/03/28 13:12:14;;;;;;;;;;;20.50;49.20;;;;;;5095628;28;19908;-73
2024/03/28 13:14:40;;;;;;;;;;;20.50;49.10;;;;;;5095616;28;20352;-75
2024/03/28 13:17:05;;;;;;;;;;;20.50;49.10;;;;;;5095751;28;20374;-74
2024/03/28 13:19:32;;;;;;;;;;;20.40;49.30;;;;;;5095580;28;20011;-75
2024/03/28 13:21:57;;;;;;;;;;;20.30;49.60;;;;;;5095369;28;20370;-75
2024/03/28 13:24:24;;;;;;;;;;;20.10;50.00;;;;;;5095395;28;19917;-75
2024/03/28 13:26:50;;;;;;;;;;;20.00;50.30;;;;;;5095513;28;20307;-74
2024/03/28 13:29:16;;;;;;;;;;;20.00;50.30;;;;;;5095304;28;20010;-74
2024/03/28 13:31:41;;;;;;;;;;;20.00;50.00;;;;;;5095301;28;19908;-73
2024/03/28 13:34:07;;;;;;;;;;;20.10;50.10;;;;;;5095723;28;19908;-74
2024/03/28 13:36:32;;;;;;;;;;;20.10;49.90;;;;;;5095241;28;19908;-75
2024/03/28 13:38:58;;;;;;;;;;;20.10;49.90;;;;;;5094972;28;19998;-74
2024/03/28 13:41:24;;;;;;;;;;;20.00;50.20;;;;;;5076792;28;19931;-75
2024/03/28 13:43:49;;;;;;;;;;;19.90;49.90;;;;;;5094988;28;20010;-75
2024/03/28 13:46:15;;;;;;;;;;;19.80;50.80;;;;;;5094976;28;19908;-75
2024/03/28 13:48:41;;;;;;;;;;;19.70;50.50;;;;;;5094861;28;19963;-76
2024/03/28 13:51:06;;;;;;;;;;;19.60;50.70;;;;;;5094819;28;19908;-76
2024/03/28 13:53:32;;;;;;;;;;;19.60;51.20;;;;;;5094769;28;19908;-75
2024/03/28 13:55:58;;;;;;;;;;;19.50;51.20;;;;;;5094711;28;20356;-74
2024/03/28 13:58:23;;;;;;;;;;;19.40;51.40;;;;;;5094787;28;19909;-76
2024/03/28 14:00:49;;;;;;;;;;;19.30;51.30;;;;;;5094654;28;19912;-74
2024/03/28 14:03:15;;;;;;;;;;;19.30;50.70;;;;;;5094892;28;20014;-75
2024/03/28 14:05:40;;;;;;;;;;;19.20;51.20;;;;;;5094409;28;19934;-74
2024/03/28 14:08:06;;;;;;;;;;;19.20;51.60;;;;;;5094460;28;19951;-75
2024/03/28 14:10:37;;;;;;;;;;;19.20;51.10;;;;;;5076239;28;19920;-74
2024/03/28 14:13:03;;;;;;;;;;;18.50;51.10;;;;;;5094015;28;19999;-75
2024/03/28 14:15:29;;;;;;;;;;;19.00;51.20;;;;;;5094648;28;19952;-73
2024/03/28 14:17:55;;;;;;;;;;;19.00;51.70;;;;;;5094674;28;19908;-76